Time;durP1;ratioP1;P1;durP2;ratioP2;P2;SDS_P1;SDS_P2;PMS_P1;PMS_P2;Temp;Humidity;BMP_temperature;BMP_pressure;BME280_temperature;BME280_humidity;BME280_pressure;Samples;Min_cycle;Max_cycle;Signal;HPM_P1;HPM_P2
2022/11/17 00:01:24;;;;;;;5.90;5.10;;;;;;;1.98;99.78;96600.37;105237;1285;22283;-81
2022/11/17 00:03:52;;;;;;;4.90;4.20;;;;;;;1.97;99.73;96600.64;105055;1301;22081;-84
2022/11/17 00:06:20;;;;;;;5.90;5.10;;;;;;;1.95;99.86;96601.82;105231;1295;22184;-86
2022/11/17 00:08:48;;;;;;;4.50;4.10;;;;;;;1.98;99.82;96600.30;104925;1321;22449;-91
2022/11/17 00:11:16;;;;;;;5.20;4.70;;;;;;;2.03;99.73;96607.67;105088;1308;22770;-93
2022/11/17 00:16:31;;;;;;;5.80;5.10;;;;;;;2.06;99.79;96605.43;105323;1319;22146;-87
2022/11/17 00:21:45;;;;;;;4.10;3.70;;;;;;;2.07;99.78;96602.40;105400;1312;22178;-88
2022/11/17 00:24:15;;;;;;;4.60;4.20;;;;;;;2.06;99.83;96603.09;105069;1321;22234;-88
2022/11/17 00:27:01;;;;;;;5.20;4.00;;;;;;;2.03;99.58;96602.73;105514;1311;22122;-92
2022/11/17 00:29:29;;;;;;;4.00;3.50;;;;;;;1.99;99.79;96604.89;105147;1327;22251;-93
2022/11/17 00:34:44;;;;;;;4.10;3.70;;;;;;;1.98;99.84;96610.15;105118;1327;22181;-91
2022/11/17 00:37:13;;;;;;;4.30;3.90;;;;;;;1.99;99.62;96613.80;105309;1314;22209;-92
2022/11/17 00:39:41;;;;;;;4.30;3.90;;;;;;;1.98;99.80;96607.21;105520;1319;22182;-88
2022/11/17 00:42:09;;;;;;;5.10;4.70;;;;;;;1.98;99.88;96607.27;105548;1305;22195;-89
2022/11/17 00:44:37;;;;;;;4.60;4.20;;;;;;;1.98;99.80;96606.48;104973;1324;22303;-89
2022/11/17 00:47:05;;;;;;;4.10;3.70;;;;;;;1.98;99.75;96606.86;104948;1327;22260;-89
2022/11/17 00:49:33;;;;;;;4.70;4.30;;;;;;;2.01;99.79;96601.73;104992;1327;22286;-87
2022/11/17 00:52:01;;;;;;;5.20;4.60;;;;;;;2.05;99.89;96590.23;105476;1314;22185;-90
2022/11/17 00:54:29;;;;;;;6.00;4.10;;;;;;;2.03;99.71;96589.34;105054;1310;22105;-89
2022/11/17 00:56:57;;;;;;;4.00;3.50;;;;;;;1.98;99.79;96586.02;105016;1324;22212;-88
2022/11/17 00:59:25;;;;;;;4.80;4.40;;;;;;;1.94;99.94;96587.11;105287;1308;22917;-92
2022/11/17 01:01:53;;;;;;;5.30;4.80;;;;;;;1.92;99.73;96581.88;105597;1311;22933;-93
2022/11/17 01:04:21;;;;;;;5.90;4.90;;;;;;;1.92;99.62;96584.73;104991;1313;22955;-91
2022/11/17 01:06:49;;;;;;;4.80;4.30;;;;;;;1.96;99.86;96582.27;105472;1320;22093;-90
2022/11/17 01:09:20;;;;;;;6.50;5.90;;;;;;;1.97;99.76;96586.14;104999;1314;22182;-88
2022/11/17 01:11:49;;;;;;;6.80;6.20;;;;;;;1.97;99.96;96591.61;104815;1321;22264;-90
2022/11/17 01:14:21;;;;;;;6.10;5.50;;;;;;;1.95;99.90;96595.14;105352;1306;22867;-88
2022/11/17 01:16:49;;;;;;;5.40;4.90;;;;;;;1.97;99.89;96595.11;105224;1320;22139;-91
2022/11/17 01:19:18;;;;;;;5.30;4.80;;;;;;;1.97;99.61;96592.04;105526;1312;23127;-90
2022/11/17 01:21:46;;;;;;;5.20;4.50;;;;;;;1.98;99.89;96590.05;105543;1320;22173;-93
2022/11/17 01:24:15;;;;;;;4.40;4.00;;;;;;;1.96;99.94;96586.95;105639;1305;22176;-90
2022/11/17 01:26:45;;;;;;;5.70;5.20;;;;;;;1.94;99.81;96589.23;105117;1327;22224;-82
2022/11/17 01:29:17;;;;;;;5.40;4.90;;;;;;;1.92;99.95;96585.64;105162;1321;22194;-89
2022/11/17 01:31:50;;;;;;;5.30;4.80;;;;;;;1.92;99.97;96582.61;105580;1311;22124;-88
2022/11/17 01:34:19;;;;;;;5.30;4.80;;;;;;;1.96;99.83;96577.59;105080;1327;22845;-91
2022/11/17 01:39:33;;;;;;;4.60;3.50;;;;;;;1.99;99.90;96575.76;105045;1326;22868;-92
2022/11/17 01:42:04;;;;;;;4.10;3.70;;;;;;;1.97;99.93;96578.33;105042;1326;22221;-92
2022/11/17 01:44:35;;;;;;;5.10;4.60;;;;;;;1.95;99.88;96580.10;105061;1319;22141;-87
2022/11/17 01:47:05;;;;;;;4.70;4.20;;;;;;;1.97;99.91;96586.09;105025;1326;22243;-93
2022/11/17 01:49:33;;;;;;;3.50;3.20;;;;;;;1.97;100.00;96591.77;105556;1298;22259;-91
2022/11/17 01:52:06;;;;;;;4.10;3.70;;;;;;;1.96;99.95;96593.85;105030;1317;22132;-90
2022/11/17 01:54:39;;;;;;;3.70;3.40;;;;;;;1.94;99.95;96591.67;105489;1319;22303;-90
2022/11/17 01:57:13;;;;;;;3.60;3.30;;;;;;;1.96;99.92;96590.06;104993;1319;22231;-90
2022/11/17 01:59:47;;;;;;;3.50;3.20;;;;;;;2.00;99.90;96590.78;105436;1312;22167;-91
2022/11/17 02:02:16;;;;;;;3.70;3.40;;;;;;;2.04;100.00;96592.52;104988;1318;22223;-90
2022/11/17 02:04:57;;;;;;;3.60;3.10;;;;;;;2.04;99.86;96595.98;105112;1309;22193;-90
2022/11/17 02:07:28;;;;;;;6.60;3.20;;;;;;;2.02;99.88;96589.19;105265;1327;22100;-84
2022/11/17 02:09:59;;;;;;;3.40;3.10;;;;;;;2.00;99.92;96582.60;105034;1324;21951;-86
2022/11/17 02:12:30;;;;;;;2.80;2.60;;;;;;;2.01;99.82;96570.77;105001;1328;22245;-92
2022/11/17 02:14:59;;;;;;;4.00;3.70;;;;;;;2.01;99.90;96567.35;104969;1320;22220;-89
2022/11/17 02:17:35;;;;;;;4.30;3.50;;;;;;;2.02;99.87;96562.83;105140;1315;22852;-91
2022/11/17 02:20:22;;;;;;;3.60;3.30;;;;;;;2.04;99.89;96558.10;105045;1324;22298;-91
2022/11/17 02:23:17;;;;;;;3.30;3.00;;;;;;;2.03;99.93;96556.61;105423;1319;22925;-93
2022/11/17 02:26:26;;;;;;;4.60;4.20;;;;;;;2.01;99.86;96561.46;105082;1326;22800;-91
2022/11/17 02:29:14;;;;;;;6.20;5.60;;;;;;;2.00;99.95;96573.83;105156;1318;22206;-92
2022/11/17 02:32:03;;;;;;;4.80;4.20;;;;;;;2.01;99.99;96572.92;105398;1317;22206;-89
2022/11/17 02:35:02;;;;;;;3.80;3.50;;;;;;;2.02;99.99;96569.73;105138;1325;22214;-92
2022/11/17 02:37:46;;;;;;;3.50;3.20;;;;;;;2.01;99.77;96568.38;105137;1320;22174;-93
2022/11/17 02:40:23;;;;;;;3.60;3.30;;;;;;;1.97;99.81;96569.13;104853;1326;22233;-92
2022/11/17 02:45:55;;;;;;;3.70;3.40;;;;;;;2.02;99.94;96566.29;104828;1328;22120;-92
2022/11/17 02:48:28;;;;;;;3.60;3.30;;;;;;;2.10;99.96;96570.85;104721;1325;22227;-90
2022/11/17 02:50:58;;;;;;;3.20;2.90;;;;;;;2.12;99.78;96577.80;105489;1319;22241;-92
2022/11/17 02:53:28;;;;;;;3.30;3.00;;;;;;;2.11;99.75;96575.99;105465;1310;22879;-91
2022/11/17 02:55:59;;;;;;;4.80;4.40;;;;;;;2.09;99.94;96576.66;105488;1302;22244;-91
2022/11/17 02:58:27;;;;;;;4.40;3.50;;;;;;;2.11;99.97;96578.28;105457;1320;22109;-92
2022/11/17 03:01:02;;;;;;;4.50;4.10;;;;;;;2.15;99.87;96576.99;105482;1305;22266;-93
2022/11/17 03:03:54;;;;;;;4.70;3.80;;;;;;;2.16;99.93;96577.23;105541;1302;22165;-92
2022/11/17 03:06:55;;;;;;;5.60;5.10;;;;;;;2.16;99.77;96579.15;105589;1312;22252;-92
2022/11/17 03:09:54;;;;;;;3.30;3.10;;;;;;;2.11;99.65;96582.12;104844;1326;22158;-92
2022/11/17 03:12:33;;;;;;;4.30;3.90;;;;;;;2.05;99.92;96586.14;105043;1326;22159;-92
2022/11/17 03:15:04;;;;;;;3.40;3.10;;;;;;;2.05;99.97;96582.46;105315;1311;22202;-90
2022/11/17 03:17:58;;;;;;;3.50;3.20;;;;;;;2.06;99.92;96579.48;105064;1326;22089;-92
2022/11/17 03:20:32;;;;;;;4.40;4.00;;;;;;;2.06;99.80;96580.45;104939;1327;22202;-89
2022/11/17 03:23:21;;;;;;;5.80;4.70;;;;;;;2.03;99.73;96579.77;105003;1327;22264;-90
2022/11/17 03:25:54;;;;;;;5.70;5.20;;;;;;;2.02;99.90;96580.04;104800;1327;22135;-92
2022/11/17 03:28:28;;;;;;;4.10;3.70;;;;;;;2.03;99.86;96579.25;105039;1320;22293;-92
2022/11/17 03:30:58;;;;;;;3.50;3.20;;;;;;;2.11;99.94;96581.69;104826;1327;22200;-90
2022/11/17 03:33:27;;;;;;;4.10;3.60;;;;;;;2.12;99.93;96580.23;105445;1320;22166;-91
2022/11/17 03:36:25;;;;;;;3.80;3.40;;;;;;;2.10;99.67;96580.73;104846;1329;22270;-90
2022/11/17 03:39:13;;;;;;;4.50;4.10;;;;;;;2.06;99.76;96580.92;104946;1326;22134;-92
2022/11/17 03:41:45;;;;;;;4.50;4.10;;;;;;;2.06;99.74;96581.45;104832;1327;22204;-89
2022/11/17 03:44:15;;;;;;;3.90;3.50;;;;;;;2.09;99.66;96579.41;105345;1320;22220;-92
2022/11/17 03:46:46;;;;;;;2.80;2.60;;;;;;;2.09;99.71;96578.09;105481;1306;22092;-92
2022/11/17 03:49:28;;;;;;;3.20;3.00;;;;;;;2.06;99.98;96577.38;105082;1326;22196;-89
2022/11/17 03:51:56;;;;;;;3.30;3.00;;;;;;;2.05;99.93;96574.02;105396;1311;22400;-92
2022/11/17 03:54:24;;;;;;;3.00;2.80;;;;;;;2.04;99.82;96571.89;105491;1315;22280;-93
2022/11/17 03:57:09;;;;;;;2.90;2.70;;;;;;;2.06;99.87;96572.42;105130;1326;22215;-92
2022/11/17 04:00:03;;;;;;;2.80;2.50;;;;;;;2.07;99.70;96572.10;104961;1327;22134;-93
2022/11/17 04:02:40;;;;;;;2.90;2.70;;;;;;;2.05;99.71;96574.72;105014;1326;22121;-92
2022/11/17 04:05:10;;;;;;;3.40;3.10;;;;;;;2.02;99.71;96576.60;104928;1327;22125;-90
2022/11/17 04:07:43;;;;;;;3.30;3.00;;;;;;;1.99;99.84;96575.44;105135;1319;22185;-92
2022/11/17 04:10:24;;;;;;;3.50;3.20;;;;;;;2.03;99.79;96572.93;105508;1319;22130;-92
2022/11/17 04:15:57;;;;;;;3.70;3.30;;;;;;;2.02;99.84;96572.77;105103;1327;22632;-86
2022/11/17 04:18:26;;;;;;;6.20;5.00;;;;;;;1.98;99.94;96572.20;105261;1326;22137;-87
2022/11/17 04:20:55;;;;;;;3.40;3.10;;;;;;;1.96;99.77;96568.55;105153;1327;22249;-84
2022/11/17 04:23:24;;;;;;;3.20;2.90;;;;;;;1.97;99.89;96572.48;105550;1312;22233;-93
2022/11/17 04:28:46;;;;;;;3.80;3.50;;;;;;;1.98;99.83;96575.56;104997;1324;22216;-92
2022/11/17 04:31:24;;;;;;;4.00;3.60;;;;;;;2.01;99.93;96578.83;105518;1319;22180;-93
2022/11/17 04:33:56;;;;;;;3.40;3.10;;;;;;;2.01;99.94;96580.54;105574;1319;22187;-93
2022/11/17 04:36:29;;;;;;;2.90;2.70;;;;;;;2.00;99.88;96578.94;104895;1321;22224;-92
2022/11/17 04:38:58;;;;;;;3.60;3.30;;;;;;;2.01;99.69;96576.55;105381;1312;22988;-92
2022/11/17 04:44:16;;;;;;;3.50;3.20;;;;;;;2.06;99.77;96580.18;105132;1318;22176;-89
2022/11/17 04:46:45;;;;;;;3.00;2.80;;;;;;;2.04;99.84;96583.23;105186;1318;22217;-91
2022/11/17 04:49:14;;;;;;;2.90;2.70;;;;;;;2.03;99.92;96581.85;104979;1322;22269;-91
2022/11/17 04:51:43;;;;;;;4.30;3.50;;;;;;;2.03;99.74;96579.46;104845;1327;22169;-91
2022/11/17 04:54:14;;;;;;;5.30;3.80;;;;;;;2.06;99.87;96582.37;104867;1327;22210;-87
2022/11/17 04:56:43;;;;;;;6.90;5.90;;;;;;;2.11;99.91;96581.58;105516;1320;22156;-90
2022/11/17 04:59:11;;;;;;;5.30;4.80;;;;;;;2.10;99.82;96576.81;105069;1319;22184;-88
2022/11/17 05:01:39;;;;;;;3.40;3.10;;;;;;;2.12;99.82;96582.73;104921;1327;22174;-88
2022/11/17 05:04:09;;;;;;;3.10;2.80;;;;;;;2.11;99.90;96587.64;105317;1318;22313;-90
2022/11/17 05:06:43;;;;;;;6.10;5.40;;;;;;;2.12;99.84;96586.69;105354;1319;22066;-91
2022/11/17 05:09:14;;;;;;;6.50;5.30;;;;;;;2.16;99.90;96587.23;104928;1327;22242;-90
2022/11/17 05:14:29;;;;;;;7.60;6.90;;;;;;;2.17;99.88;96584.67;105486;1309;22224;-92
2022/11/17 05:17:08;;;;;;;4.60;4.20;;;;;;;2.14;99.52;96588.48;105060;1327;22886;-91
2022/11/17 05:19:43;;;;;;;4.30;3.90;;;;;;;2.08;99.84;96593.73;104811;1327;22241;-92
2022/11/17 05:25:05;;;;;;;6.00;3.80;;;;;;;2.09;99.86;96595.85;105495;1319;22166;-90
2022/11/17 05:27:33;;;;;;;3.70;3.20;;;;;;;2.09;99.59;96595.62;105089;1326;22224;-89
2022/11/17 05:30:04;;;;;;;3.20;2.90;;;;;;;2.10;99.83;96594.55;105369;1319;22235;-91
2022/11/17 05:32:32;;;;;;;3.80;3.40;;;;;;;2.05;99.70;96595.23;105531;1318;22241;-92
2022/11/17 05:35:00;;;;;;;4.30;3.20;;;;;;;2.02;99.83;96584.25;105041;1327;23037;-90
2022/11/17 05:37:28;;;;;;;4.50;3.80;;;;;;;2.02;99.71;96582.70;105046;1326;22153;-91
2022/11/17 05:39:56;;;;;;;4.90;4.00;;;;;;;2.04;99.91;96586.58;105121;1324;22226;-90
2022/11/17 05:42:24;;;;;;;25.80;23.30;;;;;;;2.05;99.58;96588.85;105158;1326;22656;-92
2022/11/17 05:44:52;;;;;;;7.00;6.30;;;;;;;2.04;99.62;96589.02;104930;1328;22282;-93
2022/11/17 05:47:25;;;;;;;6.80;4.60;;;;;;;2.00;99.53;96591.38;105286;1284;22326;31
2022/11/17 05:50:03;;;;;;;3.60;3.10;;;;;;;1.97;99.62;96595.65;106380;1292;22316;31
2022/11/17 05:52:39;;;;;;;3.20;2.90;;;;;;;1.96;99.62;96602.46;105607;1289;22385;31
2022/11/17 05:55:07;;;;;;;5.40;4.80;;;;;;;1.95;99.53;96610.27;106048;1294;22691;-89
2022/11/17 05:57:43;;;;;;;4.40;4.00;;;;;;;1.90;99.46;96610.72;105720;1298;22431;31
2022/11/17 06:00:23;;;;;;;4.50;3.90;;;;;;;1.89;99.55;96618.05;105526;1292;24521;31
2022/11/17 06:02:59;;;;;;;4.40;3.90;;;;;;;1.87;99.66;96622.33;105065;1301;22678;-82
2022/11/17 06:05:27;;;;;;;4.00;3.60;;;;;;;1.92;99.61;96631.17;105128;1326;22005;-92
2022/11/17 06:07:58;;;;;;;6.10;5.50;;;;;;;1.94;99.80;96630.15;105304;1321;22705;-89
2022/11/17 06:10:26;;;;;;;6.00;5.40;;;;;;;1.97;99.51;96629.64;104946;1315;22374;-91
2022/11/17 06:12:54;;;;;;;7.80;7.10;;;;;;;1.97;99.57;96630.02;105520;1308;22077;-92
2022/11/17 06:15:22;;;;;;;4.30;3.90;;;;;;;1.95;99.48;96634.17;105168;1327;22141;-82
2022/11/17 06:17:58;;;;;;;5.00;4.50;;;;;;;1.90;99.47;96639.58;105135;1325;22285;-93
2022/11/17 06:20:36;;;;;;;5.50;5.00;;;;;;;1.92;99.60;96645.79;105139;1320;21988;-83
2022/11/17 06:23:07;;;;;;;7.40;6.00;;;;;;;1.97;99.82;96647.13;105619;1297;22400;-81
2022/11/17 06:26:23;;;;;;;4.90;4.40;;;;;;;1.99;99.46;96645.27;105503;1289;22213;31
2022/11/17 06:28:51;;;;;;;6.00;5.40;;;;;;;1.92;99.38;96644.08;100528;1282;22101;-92
2022/11/17 06:31:20;;;;;;;5.20;4.70;;;;;;;1.91;99.51;96647.48;105024;1328;22231;-89
2022/11/17 06:34:43;;;;;;;6.40;5.70;;;;;;;1.91;99.45;96642.28;105664;1296;23701;31
2022/11/17 06:37:17;;;;;;;8.20;7.40;;;;;;;1.88;99.44;96641.60;104898;1320;22174;-90
2022/11/17 06:39:45;;;;;;;8.40;7.60;;;;;;;1.88;99.19;96641.92;104828;1330;22109;-83
2022/11/17 06:42:13;;;;;;;10.10;9.10;;;;;;;1.87;98.96;96644.36;105512;1290;22684;-93
2022/11/17 06:44:41;;;;;;;10.50;9.40;;;;;;;1.84;99.15;96645.45;105691;1298;22425;-90
2022/11/17 06:47:09;;;;;;;4.70;4.20;;;;;;;1.78;99.25;96648.77;105032;1327;23118;-91
2022/11/17 06:49:37;;;;;;;3.60;3.10;;;;;;;1.72;98.95;96650.70;105480;1298;22113;-91
2022/11/17 06:52:05;;;;;;;3.80;3.20;;;;;;;1.68;99.33;96657.79;105649;1320;22266;-90
2022/11/17 06:54:32;;;;;;;4.10;3.70;;;;;;;1.69;99.00;96660.55;105040;1312;22100;-93
2022/11/17 06:57:00;;;;;;;5.30;4.80;;;;;;;1.72;99.41;96666.46;105647;1308;22225;-89
2022/11/17 06:59:29;;;;;;;11.20;5.20;;;;;;;1.77;98.98;96667.83;105075;1321;22143;-90
2022/11/17 07:01:57;;;;;;;25.30;14.10;;;;;;;1.74;99.11;96665.19;105515;1320;22175;-87
2022/11/17 07:04:25;;;;;;;14.80;6.70;;;;;;;1.69;99.18;96661.77;104943;1325;22207;-87
2022/11/17 07:06:53;;;;;;;6.60;5.40;;;;;;;1.65;98.94;96657.90;105017;1327;22174;-90
2022/11/17 07:09:21;;;;;;;4.70;4.30;;;;;;;1.62;98.96;96659.02;105026;1327;22240;-88
2022/11/17 07:11:49;;;;;;;4.50;4.10;;;;;;;1.61;98.93;96658.61;105109;1327;22148;-87
2022/11/17 07:14:17;;;;;;;5.40;4.80;;;;;;;1.59;99.15;96655.80;105295;1304;22188;-93
2022/11/17 07:16:45;;;;;;;4.90;4.50;;;;;;;1.57;98.90;96662.27;105312;1298;22193;-91
2022/11/17 07:19:13;;;;;;;4.20;3.60;;;;;;;1.54;99.01;96660.96;105464;1320;22083;-92
2022/11/17 07:21:41;;;;;;;4.80;4.40;;;;;;;1.54;99.00;96656.98;105387;1312;172688;-91
2022/11/17 07:24:09;;;;;;;8.10;6.50;;;;;;;1.59;98.85;96660.64;105112;1327;22086;-90
2022/11/17 07:26:37;;;;;;;8.40;4.30;;;;;;;1.62;98.98;96659.08;105026;1320;22128;-92
2022/11/17 07:29:05;;;;;;;6.20;5.30;;;;;;;1.60;98.63;96661.10;105093;1326;22885;-91
2022/11/17 07:31:35;;;;;;;4.40;4.00;;;;;;;1.56;98.38;96663.98;105188;1307;22224;-88
2022/11/17 07:34:03;;;;;;;3.70;3.30;;;;;;;1.54;98.48;96664.31;104847;1322;22199;-93
2022/11/17 07:36:32;;;;;;;4.60;4.20;;;;;;;1.54;98.17;96673.07;105345;1315;22304;-91
2022/11/17 07:39:00;;;;;;;5.10;4.50;;;;;;;1.52;98.63;96676.63;105117;1327;22183;-88
2022/11/17 07:41:28;;;;;;;5.00;4.40;;;;;;;1.54;98.62;96678.64;104860;1326;22212;-92
2022/11/17 07:43:57;;;;;;;4.90;4.30;;;;;;;1.53;98.53;96678.69;104926;1327;22186;-92
2022/11/17 07:46:25;;;;;;;4.20;3.70;;;;;;;1.53;98.46;96683.32;104759;1326;22274;-91
2022/11/17 07:48:54;;;;;;;4.50;3.90;;;;;;;1.53;98.63;96680.49;105042;1326;22216;-92
2022/11/17 07:51:22;;;;;;;5.00;4.50;;;;;;;1.56;98.51;96677.00;104923;1327;22234;-91
2022/11/17 07:53:50;;;;;;;4.70;4.10;;;;;;;1.54;98.34;96666.38;104808;1327;23040;-89
2022/11/17 07:56:18;;;;;;;6.80;6.10;;;;;;;1.55;98.28;96670.03;105310;1308;22165;-91
2022/11/17 07:58:46;;;;;;;13.10;11.90;;;;;;;1.56;98.07;96670.09;105232;1320;22209;-90
2022/11/17 08:01:14;;;;;;;7.30;4.60;;;;;;;1.57;98.19;96671.95;105403;1320;22219;-91
2022/11/17 08:03:43;;;;;;;5.40;4.80;;;;;;;1.62;98.43;96671.93;105039;1319;22216;-91
2022/11/17 08:06:11;;;;;;;8.30;7.50;;;;;;;1.64;98.35;96666.40;104928;1326;22279;-91
2022/11/17 08:08:39;;;;;;;8.00;6.50;;;;;;;1.65;98.31;96664.28;105441;1312;22108;-91
2022/11/17 08:11:09;;;;;;;5.50;4.60;;;;;;;1.66;98.39;96662.89;105041;1318;22124;-91
2022/11/17 08:13:39;;;;;;;8.30;7.50;;;;;;;1.69;98.55;96665.70;104855;1327;22143;-91
2022/11/17 08:16:09;;;;;;;8.10;5.50;;;;;;;1.76;98.26;96663.01;105472;1317;22182;-90
2022/11/17 08:18:38;;;;;;;7.30;5.70;;;;;;;1.81;98.36;96661.45;105446;1320;22103;-91
2022/11/17 08:21:09;;;;;;;5.90;4.40;;;;;;;1.86;98.14;96665.15;105459;1306;22217;-91
2022/11/17 08:23:37;;;;;;;5.40;4.30;;;;;;;1.85;98.15;96667.16;104979;1321;22289;-91
2022/11/17 08:26:08;;;;;;;5.10;4.60;;;;;;;1.86;98.28;96667.33;105042;1327;22199;-89
2022/11/17 08:28:36;;;;;;;6.10;5.40;;;;;;;1.92;98.36;96669.52;105042;1326;22212;-89
2022/11/17 08:31:06;;;;;;;12.30;11.10;;;;;;;1.97;98.27;96673.75;104826;1327;22803;-92
2022/11/17 08:33:34;;;;;;;7.80;4.90;;;;;;;2.03;98.10;96675.38;105013;1327;22177;-91
2022/11/17 08:36:05;;;;;;;4.70;4.00;;;;;;;2.03;97.70;96676.54;105156;1326;22129;-89
2022/11/17 08:38:34;;;;;;;4.70;4.30;;;;;;;1.98;97.48;96683.41;104859;1320;22282;-89
2022/11/17 08:41:05;;;;;;;5.80;5.20;;;;;;;1.91;97.02;96676.86;104812;1327;22959;-86
2022/11/17 08:43:34;;;;;;;4.80;4.30;;;;;;;1.89;96.73;96672.71;104926;1326;22332;-90
2022/11/17 08:46:02;;;;;;;3.50;3.20;;;;;;;1.91;96.91;96674.37;104908;1327;22839;-87
2022/11/17 08:48:30;;;;;;;6.10;5.50;;;;;;;1.94;96.87;96675.24;104840;1327;22278;-89
2022/11/17 08:51:04;;;;;;;5.60;5.00;;;;;;;1.97;96.37;96673.27;105005;1327;22879;-89
2022/11/17 08:53:33;;;;;;;6.60;6.00;;;;;;;1.96;96.66;96680.17;104883;1327;22263;-90
2022/11/17 08:56:06;;;;;;;5.60;4.70;;;;;;;1.97;96.50;96681.39;105009;1327;24522;-88
2022/11/17 08:58:38;;;;;;;5.90;5.20;;;;;;;1.99;96.62;96680.86;105053;1326;23017;-90
2022/11/17 09:01:11;;;;;;;5.30;4.60;;;;;;;2.05;96.84;96682.52;105020;1320;22223;-88
2022/11/17 09:03:44;;;;;;;5.40;4.00;;;;;;;2.13;97.01;96683.98;105016;1319;22131;-89
2022/11/17 09:06:15;;;;;;;5.20;4.30;;;;;;;2.18;96.88;96685.39;105090;1319;22121;-85
2022/11/17 09:08:43;;;;;;;4.90;4.10;;;;;;;2.15;96.37;96691.58;105504;1312;22108;-84
2022/11/17 09:11:15;;;;;;;4.50;3.60;;;;;;;2.07;95.69;96695.23;105081;1326;22222;-86
2022/11/17 09:13:45;;;;;;;7.80;5.80;;;;;;;1.98;96.14;96700.42;105004;1320;22212;-86
2022/11/17 09:16:15;;;;;;;6.40;5.80;;;;;;;1.99;96.14;96697.70;104865;1327;22285;-84
2022/11/17 09:18:43;;;;;;;5.00;4.40;;;;;;;1.97;96.18;96704.99;105146;1320;22116;-85
2022/11/17 09:21:14;;;;;;;5.30;4.80;;;;;;;1.93;95.47;96705.96;104907;1327;22220;-85
2022/11/17 09:23:42;;;;;;;4.40;4.00;;;;;;;1.83;95.58;96707.91;104807;1327;22264;-85
2022/11/17 09:26:13;;;;;;;7.30;6.60;;;;;;;1.79;95.90;96704.85;104895;1327;22235;-83
2022/11/17 09:28:42;;;;;;;9.30;7.20;;;;;;;1.85;95.62;96706.32;104884;1327;22228;-84
2022/11/17 09:31:15;;;;;;;4.70;4.20;;;;;;;1.88;96.04;96701.05;105491;1319;22187;-84
2022/11/17 09:33:43;;;;;;;5.20;4.60;;;;;;;1.87;95.38;96700.46;105459;1319;22155;-85
2022/11/17 09:36:13;;;;;;;4.70;4.20;;;;;;;1.83;94.98;96693.10;104862;1327;22255;-84
2022/11/17 09:38:41;;;;;;;9.50;6.30;;;;;;;1.86;94.85;96694.10;105046;1320;22252;-86
2022/11/17 09:41:42;;;;;;;4.90;4.40;;;;;;;1.93;95.25;96689.70;104981;1326;22233;-85
2022/11/17 09:44:38;;;;;;;6.00;5.40;;;;;;;1.99;95.66;96686.91;105492;1319;22211;-85
2022/11/17 09:47:13;;;;;;;5.70;5.20;;;;;;;2.04;95.16;96690.39;104906;1327;22878;-86
2022/11/17 09:50:04;;;;;;;4.60;4.10;;;;;;;2.06;94.85;96689.06;104908;1327;22193;-84
2022/11/17 09:52:44;;;;;;;5.40;4.90;;;;;;;2.09;95.01;96691.71;105462;1305;22774;-90
2022/11/17 09:55:29;;;;;;;7.40;6.50;;;;;;;2.15;95.23;96692.00;105605;1301;22777;-90
2022/11/17 09:58:25;;;;;;;7.60;6.80;;;;;;;2.19;95.34;96691.60;104944;1315;22194;-88
2022/11/17 10:00:54;;;;;;;9.10;8.20;;;;;;;2.22;95.24;96693.81;105442;1297;22264;-89
2022/11/17 10:03:34;;;;;;;6.70;6.00;;;;;;;2.23;95.01;96692.22;105278;1320;22118;-89
2022/11/17 10:06:17;;;;;;;6.00;5.40;;;;;;;2.21;94.67;96694.68;105324;1312;22175;-88
2022/11/17 10:08:49;;;;;;;11.10;9.80;;;;;;;2.21;94.68;96693.08;105077;1321;22183;-88
2022/11/17 10:11:33;;;;;;;11.50;10.50;;;;;;;2.23;95.17;96694.54;105285;1320;22191;-90
2022/11/17 10:14:07;;;;;;;8.50;7.70;;;;;;;2.26;95.29;96694.92;105436;1309;22293;-88
2022/11/17 10:16:37;;;;;;;9.70;7.40;;;;;;;2.27;94.88;96699.63;104918;1327;22216;-89
2022/11/17 10:19:26;;;;;;;7.20;6.50;;;;;;;2.23;94.36;96702.75;104896;1327;22198;-89
2022/11/17 10:22:00;;;;;;;8.10;6.40;;;;;;;2.22;94.51;96710.71;105278;1297;22898;-91
2022/11/17 10:24:49;;;;;;;5.50;5.00;;;;;;;2.19;94.44;96712.60;105026;1318;22304;-90
2022/11/17 10:27:21;;;;;;;8.00;7.30;;;;;;;2.13;94.19;96711.35;104994;1327;22219;-88
2022/11/17 10:30:03;;;;;;;6.80;6.10;;;;;;;2.09;93.96;96714.35;104988;1327;22110;-87
2022/11/17 10:32:35;;;;;;;6.40;5.80;;;;;;;2.06;93.95;96713.72;105543;1319;22127;-87
2022/11/17 10:35:14;;;;;;;7.70;5.80;;;;;;;2.06;93.59;96716.75;105326;1314;22102;-89
2022/11/17 10:37:54;;;;;;;9.10;8.30;;;;;;;2.03;93.35;96712.26;105028;1327;22368;-87
2022/11/17 10:40:25;;;;;;;21.10;8.60;;;;;;;2.00;93.81;96703.81;104895;1326;22152;-89
2022/11/17 10:43:17;;;;;;;6.90;6.20;;;;;;;2.02;94.11;96701.52;105007;1327;22243;-88
2022/11/17 10:45:52;;;;;;;5.30;4.80;;;;;;;2.07;93.65;96699.59;105416;1319;22229;-88
2022/11/17 10:48:26;;;;;;;6.10;5.50;;;;;;;2.10;93.57;96705.46;105073;1326;22085;-90
2022/11/17 10:51:08;;;;;;;7.40;6.70;;;;;;;2.09;93.84;96712.17;105096;1326;22049;-87
2022/11/17 10:53:39;;;;;;;16.10;7.10;;;;;;;2.07;93.69;96707.19;105396;1319;22191;-87
2022/11/17 10:56:18;;;;;;;8.10;7.30;;;;;;;2.06;93.37;96709.58;104899;1326;22210;-89
2022/11/17 10:59:12;;;;;;;8.70;7.80;;;;;;;2.04;93.03;96703.64;104911;1327;22272;-88
2022/11/17 11:01:48;;;;;;;7.50;6.50;;;;;;;1.98;93.08;96699.88;104830;1327;22934;-90
2022/11/17 11:05:03;;;;;;;7.60;6.90;;;;;;;1.94;93.01;96697.23;104998;1326;22277;-88
2022/11/17 11:07:31;;;;;;;7.50;5.20;;;;;;;1.84;92.90;96701.55;104406;1327;22302;-89
2022/11/17 11:10:16;;;;;;;6.30;5.70;;;;;;;1.81;93.00;96703.73;104296;1336;22254;-90
2022/11/17 11:13:32;;;;;;;8.90;7.00;;;;;;;1.82;92.81;96706.44;104449;1334;22945;-86
2022/11/17 11:16:20;;;;;;;9.20;8.40;;;;;;;1.87;93.00;96711.15;104365;1335;22302;-87
2022/11/17 11:18:52;;;;;;;8.10;7.30;;;;;;;1.87;92.89;96713.74;104469;1314;22315;-87
2022/11/17 11:21:25;;;;;;;8.90;6.80;;;;;;;1.85;92.46;96718.54;104472;1313;22231;-87
2022/11/17 11:23:53;;;;;;;5.90;5.30;;;;;;;1.80;92.00;96715.95;104316;1336;22242;-87
2022/11/17 11:26:41;;;;;;;6.60;6.00;;;;;;;1.76;92.25;96720.42;104696;1325;22339;-87
2022/11/17 11:29:27;;;;;;;8.50;5.70;;;;;;;1.78;92.11;96713.89;104429;1335;22399;-85
2022/11/17 11:32:15;;;;;;;7.10;6.20;;;;;;;1.77;92.48;96713.92;104340;1337;22985;-89
2022/11/17 11:35:20;;;;;;;6.90;5.10;;;;;;;1.79;92.00;96705.82;104466;1334;22858;-86
2022/11/17 11:38:00;;;;;;;6.70;5.90;;;;;;;1.74;91.99;96700.83;104407;1336;22193;-86
2022/11/17 11:40:34;;;;;;;7.90;6.00;;;;;;;1.78;92.12;96699.87;104305;1336;22245;-85
2022/11/17 11:43:32;;;;;;;6.10;5.50;;;;;;;1.83;91.94;96701.33;104976;1320;22259;-85
2022/11/17 11:46:15;;;;;;;9.00;8.10;;;;;;;1.84;92.34;96703.23;105535;1319;22227;-88
2022/11/17 11:48:45;;;;;;;20.40;18.60;;;;;;;1.86;92.22;96704.61;104871;1326;22165;-88
2022/11/17 11:51:17;;;;;;;11.60;8.80;;;;;;;1.84;91.92;96702.96;104964;1326;22282;-92
2022/11/17 11:53:54;;;;;;;7.90;7.10;;;;;;;1.81;92.07;96697.14;104742;1327;22218;-88
2022/11/17 11:56:34;;;;;;;5.90;5.10;;;;;;;1.82;91.62;96686.63;105484;1302;22220;-90
2022/11/17 11:59:11;;;;;;;4.90;4.40;;;;;;;1.77;91.32;96690.77;105087;1319;23143;-89
2022/11/17 12:02:12;;;;;;;5.80;4.90;;;;;;;1.72;91.61;96692.34;105478;1318;22545;-90
2022/11/17 12:05:24;;;;;;;6.00;5.40;;;;;;;1.68;91.72;96698.41;105515;1302;22211;-88
2022/11/17 12:08:17;;;;;;;5.40;4.90;;;;;;;1.65;91.19;96702.61;105469;1309;22271;-86
2022/11/17 12:11:59;;;;;;;6.30;5.50;;;;;;;1.62;91.23;96698.75;105473;1319;22271;-84
2022/11/17 12:13:55;;;;;;;7.40;6.20;;;;;;;1.65;91.52;96701.29;105036;1326;22255;-89
2022/11/17 12:16:32;;;;;;;10.20;9.20;;;;;;;1.65;91.56;96702.61;105086;1327;22204;-90
2022/11/17 12:19:00;;;;;;;8.30;7.50;;;;;;;1.63;91.41;96704.58;104974;1327;22237;-89
2022/11/17 12:21:29;;;;;;;8.40;6.10;;;;;;;1.59;91.29;96701.95;105001;1327;22135;-86
2022/11/17 12:24:16;;;;;;;6.60;5.70;;;;;;;1.59;91.52;96702.46;105530;1283;22167;-88
2022/11/17 12:26:44;;;;;;;9.10;6.90;;;;;;;1.65;91.45;96701.49;105492;1312;22985;-87
2022/11/17 12:29:20;;;;;;;8.00;6.30;;;;;;;1.77;91.85;96701.52;105070;1331;22169;-93
2022/11/17 12:31:51;;;;;;;6.90;5.50;;;;;;;1.77;91.60;96713.84;104946;1327;22195;-86
2022/11/17 12:34:22;;;;;;;6.50;5.90;;;;;;;1.77;91.44;96718.61;104805;1331;22117;-84
2022/11/17 12:37:11;;;;;;;8.50;6.00;;;;;;;1.80;91.52;96722.80;105121;1292;22671;31